createdAt,value
2023-02-02T00:04:28.424Z,1.00
2023-02-02T00:09:36.078Z,1.23
2023-02-02T00:14:38.275Z,0.90
2023-02-02T00:19:40.126Z,0.67
2023-02-02T00:24:43.489Z,0.90
2023-02-02T00:29:45.894Z,0.73
2023-02-02T00:34:48.532Z,0.90
2023-02-02T00:39:52.144Z,0.70
2023-02-02T00:45:11.483Z,1.00
2023-02-02T00:50:15.549Z,1.00
2023-02-02T00:55:19.445Z,0.93
2023-02-02T01:00:24.028Z,0.80
2023-02-02T01:05:26.415Z,1.10
2023-02-02T01:10:29.994Z,0.73
2023-02-02T01:15:32.396Z,0.83
2023-02-02T01:20:35.019Z,1.30
2023-02-02T01:25:39.170Z,1.00
2023-02-02T01:30:41.599Z,0.97
2023-02-02T01:35:47.416Z,0.87
2023-02-02T01:40:52.582Z,0.60
2023-02-02T01:45:55.604Z,0.67
2023-02-02T01:51:02.760Z,0.87
2023-02-02T01:56:08.540Z,0.90
2023-02-02T02:01:10.933Z,0.70
2023-02-02T02:06:16.412Z,0.67
2023-02-02T02:11:20.492Z,0.60
2023-02-02T02:16:30.865Z,0.60
2023-02-02T02:22:12.811Z,0.50
2023-02-02T02:27:46.077Z,0.70
2023-02-02T02:32:53.882Z,0.60
2023-02-02T02:38:00.451Z,0.40
2023-02-02T02:43:07.903Z,0.60
2023-02-02T02:48:12.013Z,0.90
2023-02-02T02:53:16.834Z,0.53
2023-02-02T02:58:26.643Z,0.60
2023-02-02T03:03:44.357Z,0.87
2023-02-02T03:08:50.388Z,0.53
2023-02-02T03:13:52.736Z,0.43
2023-02-02T03:18:58.048Z,0.53
2023-02-02T03:24:00.712Z,0.83
2023-02-02T03:29:02.991Z,0.77
2023-02-02T03:34:06.319Z,0.70
2023-02-02T03:39:08.517Z,0.60
2023-02-02T03:44:10.388Z,0.70
2023-02-02T03:49:13.745Z,0.70
2023-02-02T03:54:16.069Z,0.80
2023-02-02T03:59:18.316Z,0.70
2023-02-02T04:04:21.866Z,0.63
2023-02-02T04:09:23.961Z,0.60
2023-02-02T04:14:25.986Z,0.80
2023-02-02T04:19:29.616Z,0.67
2023-02-02T04:24:31.864Z,1.10
2023-02-02T04:29:33.839Z,0.93
2023-02-02T04:34:37.213Z,0.80
2023-02-02T04:39:39.222Z,0.83
2023-02-02T04:44:41.374Z,0.80
2023-02-02T04:49:44.724Z,0.80
2023-02-02T04:54:46.921Z,0.50
2023-02-02T04:59:49.043Z,0.60
2023-02-02T05:04:52.276Z,0.60
2023-02-02T05:09:54.558Z,0.60
2023-02-02T05:14:56.695Z,0.73
2023-02-02T05:20:00.152Z,0.73
2023-02-02T05:25:02.519Z,0.43
2023-02-02T05:30:05.268Z,0.80
2023-02-02T05:35:11.098Z,0.33
2023-02-02T05:40:13.781Z,0.30
2023-02-02T05:45:15.892Z,0.37
2023-02-02T05:50:19.374Z,0.50
2023-02-02T05:55:21.558Z,0.60
2023-02-02T06:00:25.980Z,0.40
2023-02-02T06:05:29.566Z,0.50
2023-02-02T06:10:32.488Z,0.30
2023-02-02T06:15:37.048Z,1.30
2023-02-02T06:20:42.088Z,1.00
2023-02-02T06:25:44.478Z,0.50
2023-02-02T06:30:46.450Z,0.30
2023-02-02T06:35:50.076Z,0.50
2023-02-02T06:40:52.258Z,0.40
2023-02-02T06:45:54.653Z,0.70
2023-02-02T06:51:01.131Z,0.60
2023-02-02T06:56:04.860Z,0.43
2023-02-02T07:01:09.523Z,0.80
2023-02-02T07:06:18.231Z,1.30
2023-02-02T07:11:20.524Z,0.40
2023-02-02T07:16:22.574Z,0.70
2023-02-02T07:21:30.181Z,0.30
2023-02-02T07:26:32.420Z,0.77
2023-02-02T07:31:36.476Z,0.53
2023-02-02T07:36:40.409Z,0.70
2023-02-02T07:41:43.723Z,0.70
2023-02-02T07:46:46.333Z,0.60
2023-02-02T07:51:49.645Z,1.27
2023-02-02T07:56:51.579Z,0.50
2023-02-02T08:01:54.398Z,0.50
2023-02-02T08:06:58.525Z,1.00
2023-02-02T08:12:02.846Z,0.50
2023-02-02T08:17:05.839Z,0.50
2023-02-02T08:22:10.580Z,0.80
2023-02-02T08:27:15.697Z,0.70
2023-02-02T08:32:17.875Z,0.80
2023-02-02T08:37:21.861Z,0.80
2023-02-02T08:42:24.070Z,1.00
2023-02-02T08:47:26.410Z,1.00
2023-02-02T08:52:29.979Z,0.87
2023-02-02T08:57:32.883Z,0.97
2023-02-02T09:02:35.514Z,0.73
2023-02-02T09:07:39.341Z,0.70
2023-02-02T09:12:41.382Z,0.67
2023-02-02T09:17:43.658Z,1.27
2023-02-02T09:22:47.040Z,1.27
2023-02-02T09:27:49.084Z,1.10
2023-02-02T09:32:52.263Z,1.30
2023-02-02T09:37:56.140Z,0.80
2023-02-02T09:43:07.526Z,0.80
2023-02-02T09:48:27.296Z,0.73
2023-02-02T09:53:54.833Z,0.63
2023-02-02T09:59:13.714Z,0.90
2023-02-02T10:04:23.570Z,0.70
2023-02-02T10:09:37.140Z,0.77
2023-02-02T10:14:45.070Z,1.10
2023-02-02T10:19:48.187Z,1.40
2023-02-02T10:24:52.333Z,1.77
2023-02-02T10:29:59.908Z,1.83
2023-02-02T10:35:18.521Z,1.23
2023-02-02T10:40:38.985Z,0.57
2023-02-02T10:45:44.464Z,1.60
2023-02-02T10:50:51.379Z,0.80
2023-02-02T10:55:59.783Z,0.90
2023-02-02T11:01:03.948Z,0.60
2023-02-02T11:06:26.312Z,0.50
2023-02-02T11:11:33.282Z,0.70
2023-02-02T11:16:43.142Z,0.57
2023-02-02T11:21:48.792Z,0.77
2023-02-02T11:26:55.964Z,1.07
2023-02-02T11:31:58.609Z,0.77
2023-02-02T11:37:03.373Z,0.30
2023-02-02T11:42:09.558Z,0.67
2023-02-02T11:47:23.020Z,0.60
2023-02-02T11:52:27.424Z,0.60
2023-02-02T11:57:31.905Z,0.40
2023-02-02T12:02:37.856Z,0.70
2023-02-02T12:07:41.069Z,2.27
2023-02-02T12:12:53.189Z,1.27
2023-02-02T12:18:03.178Z,0.60
2023-02-02T12:23:35.081Z,0.53
2023-02-02T12:28:58.390Z,0.40
2023-02-02T12:34:13.089Z,0.43
2023-02-02T12:39:30.209Z,0.70
2023-02-02T12:44:47.400Z,0.53
2023-02-02T12:50:06.040Z,0.40
2023-02-02T12:55:23.935Z,0.40
2023-02-02T13:00:50.518Z,0.60
2023-02-02T13:11:37.835Z,0.60
2023-02-02T13:16:48.601Z,0.80
2023-02-02T13:21:52.175Z,1.00
2023-02-02T13:26:55.051Z,0.97
2023-02-02T13:32:04.507Z,0.60
2023-02-02T13:37:17.943Z,0.83
2023-02-02T13:42:31.349Z,1.10
2023-02-02T13:47:42.851Z,0.70
2023-02-02T13:53:14.170Z,0.60
2023-02-02T13:58:30.101Z,0.50
2023-02-02T14:03:39.814Z,0.80
2023-02-02T14:08:48.784Z,0.70
2023-02-02T14:14:11.175Z,0.70
2023-02-02T14:19:18.703Z,0.80
2023-02-02T14:24:44.908Z,1.00
2023-02-02T14:30:01.659Z,0.73
2023-02-02T14:35:37.138Z,0.60
2023-02-02T14:40:54.015Z,0.50
2023-02-02T14:46:23.352Z,0.43
2023-02-02T14:51:27.964Z,0.50
2023-02-02T14:56:45.606Z,0.53
2023-02-02T15:01:58.898Z,0.60
2023-02-02T15:07:34.300Z,0.73
2023-02-02T15:12:41.102Z,0.30
2023-02-02T15:17:56.033Z,1.00
2023-02-02T15:23:02.138Z,0.70
2023-02-02T15:28:13.455Z,0.53
2023-02-02T15:33:27.664Z,0.47
2023-02-02T15:38:35.366Z,0.33
2023-02-02T15:43:39.752Z,0.40
2023-02-02T15:48:43.562Z,0.77
2023-02-02T15:53:51.953Z,0.77
2023-02-02T15:58:58.583Z,1.10
2023-02-02T16:04:13.150Z,4.10
2023-02-02T16:09:25.240Z,2.13
2023-02-02T16:14:29.366Z,1.23
2023-02-02T16:19:31.546Z,1.33
2023-02-02T16:24:36.033Z,0.90
2023-02-02T16:29:41.579Z,1.10
2023-02-02T16:34:47.741Z,1.87
2023-02-02T16:39:50.188Z,1.03
2023-02-02T16:44:54.182Z,1.20
2023-02-02T16:50:16.733Z,1.13
2023-02-02T16:55:21.518Z,1.40
2023-02-02T17:00:28.270Z,1.30
2023-02-02T17:05:33.670Z,1.00
2023-02-02T17:10:38.743Z,0.60
2023-02-02T17:15:42.844Z,0.97
2023-02-02T17:20:46.753Z,0.40
2023-02-02T17:25:51.414Z,0.80
2023-02-02T17:31:00.607Z,0.90
2023-02-02T17:36:03.501Z,1.10
2023-02-02T17:41:06.241Z,0.57
2023-02-02T17:46:13.631Z,0.60
2023-02-02T17:51:19.058Z,0.80
2023-02-02T17:56:22.280Z,0.80
2023-02-02T18:01:32.113Z,0.60
2023-02-02T18:06:34.660Z,0.80
2023-02-02T18:11:36.960Z,0.60
2023-02-02T18:16:41.335Z,0.53
2023-02-02T18:21:45.170Z,0.63
2023-02-02T18:26:48.044Z,0.70
2023-02-02T18:31:52.738Z,0.87
2023-02-02T18:36:55.599Z,0.60
2023-02-02T18:41:58.467Z,0.80
2023-02-02T18:47:02.748Z,0.80
2023-02-02T18:52:05.490Z,0.60
2023-02-02T18:57:08.367Z,0.70
2023-02-02T19:02:16.266Z,1.30
2023-02-02T19:07:36.656Z,2.17
2023-02-02T19:12:40.189Z,2.13
2023-02-02T19:17:48.700Z,2.07
2023-02-02T19:22:54.741Z,2.47
2023-02-02T19:27:57.469Z,2.70
2023-02-02T19:33:01.280Z,3.13
2023-02-02T19:38:05.044Z,4.37
2023-02-02T19:43:35.043Z,3.83
2023-02-02T19:48:43.452Z,5.73
2023-02-02T19:53:46.775Z,3.73
2023-02-02T19:58:51.383Z,4.47
2023-02-02T20:03:55.985Z,4.27
2023-02-02T20:09:01.349Z,4.53
2023-02-02T20:14:22.074Z,4.60
2023-02-02T20:19:29.261Z,5.00
2023-02-02T20:24:37.562Z,4.60
2023-02-02T20:29:43.977Z,4.43
2023-02-02T20:34:49.926Z,5.30
2023-02-02T20:39:57.142Z,3.80
2023-02-02T20:45:02.600Z,3.13
2023-02-02T20:50:08.498Z,2.67
2023-02-02T20:55:12.336Z,2.67
2023-02-02T21:00:17.859Z,3.13
2023-02-02T21:05:25.650Z,2.50
2023-02-02T21:10:28.626Z,2.73
2023-02-02T21:15:31.159Z,2.83
2023-02-02T21:20:35.017Z,3.77
2023-02-02T21:25:37.510Z,4.17
2023-02-02T21:30:41.010Z,4.43
2023-02-02T21:35:44.688Z,4.67
2023-02-02T21:40:48.539Z,4.33
2023-02-02T21:45:53.206Z,5.10
2023-02-02T21:50:58.245Z,4.17
2023-02-02T21:56:03.060Z,3.93
2023-02-02T22:01:22.351Z,3.77
2023-02-02T22:06:31.495Z,4.17
2023-02-02T22:11:41.419Z,4.10
2023-02-02T22:17:16.265Z,3.40
2023-02-02T22:28:18.576Z,2.97
2023-02-02T22:33:21.086Z,3.50
2023-02-02T22:38:26.197Z,3.33
2023-02-02T22:43:28.236Z,3.37
2023-02-02T22:48:30.215Z,3.47
2023-02-02T22:53:33.717Z,3.50
2023-02-02T22:58:35.676Z,3.03
2023-02-02T23:03:38.081Z,3.17
2023-02-02T23:08:41.667Z,3.50
2023-02-02T23:13:43.885Z,3.43
2023-02-02T23:18:45.766Z,3.50
2023-02-02T23:23:49.613Z,3.57
2023-02-02T23:28:52.166Z,3.37
2023-02-02T23:33:54.266Z,4.17
2023-02-02T23:38:57.519Z,4.13
2023-02-02T23:43:59.705Z,4.50
2023-02-02T23:49:02.421Z,4.27
2023-02-02T23:54:06.685Z,4.40
2023-02-02T23:59:09.006Z,3.90
